Impacts METAR Board INFO
IDs:

KJFK - New York/Kennedy Int, NY, US

Updated at: 1526 UTC 18 Jan 2018
Potential Impact None Slight Moderate High
Time18/03Z 18/04Z 18/05Z 18/06Z 18/07Z 18/08Z 18/09Z 18/10Z 18/11Z 18/12Z 18/13Z 18/14Z 18/15Z
VIS10 10 10 10 10 10 10 10 10 10 10 10 10
CIG22 22 24 -- -- -- -- -- -- -- -- -- --
CoverOVCBKNBKNSCTFEWCLRCLRCLRCLRFEWSCTSCTFEW
FltCatMVFRMVFRMVFRVFRVFRVFRVFRVFRVFRVFRVFRVFRVFR
WX--------------------------
WDir320320330310320320330320330320320310280
WSpd13 13 13 11 12 16 18 17 10 5 12 11 7
WGst-- -- -- -- -- -- 23 -- -- -- -- -- --
Raw hourly METARs
KJFK 180251Z 32013KT 10SM OVC022 M04/M09 A3020 RMK AO2 SLP226 T10391089 53008 $
KJFK 180351Z 32013KT 10SM BKN022 M04/M09 A3018 RMK AO2 SLP219 T10441094 $
KJFK 180451Z 33013KT 10SM BKN024 M05/M10 A3017 RMK AO2 SLP215 T10501100 401221050 $
KJFK 180551Z 31011KT 10SM SCT025 SCT180 M06/M11 A3015 RMK AO2 SLP209 T10561111 11017 21056 56017 $
KJFK 180651Z 32012KT 10SM FEW170 M06/M12 A3013 RMK AO2 SLP203 T10611117 $
KJFK 180751Z 32016KT 10SM CLR M06/M12 A3013 RMK AO2 SLP200 T10611122 $
KJFK 180851Z 33018G23KT 10SM CLR M06/M12 A3008 RMK AO2 SLP184 T10611122 58025 $
KJFK 180951Z 32017KT 10SM CLR M07/M12 A3004 RMK AO2 SLP172 T10671122 $
KJFK 181051Z 33010KT 10SM CLR M07/M13 A3005 RMK AO2 SLP176 T10671128 $
KJFK 181151Z 32005KT 10SM FEW110 FEW180 M07/M13 A3010 RMK AO2 SLP193 70015 T10721128 11056 21072 53009 $
KJFK 181251Z 32012KT 10SM FEW095 SCT180 M06/M12 A3007 RMK AO2 SLP182 T10561122 $
KJFK 181351Z 31011KT 10SM FEW095 SCT200 M05/M13 A3005 RMK AO2 SLP173 T10501133 $
KJFK 181451Z 28007KT 10SM FEW200 M03/M13 A3009 RMK AO2 SLP187 T10281128 55006 $